sensor_id;sensor_type;location;lat;lon;timestamp;P1;durP1;ratioP1;P2;durP2;ratioP2
74791;SDS011;63319;46.046;17.802;2023-02-15T00:02:43;16.07;;;9.53;;
74791;SDS011;63319;46.046;17.802;2023-02-15T00:05:46;14.48;;;10.35;;
74791;SDS011;63319;46.046;17.802;2023-02-15T00:08:49;16.48;;;10.32;;
74791;SDS011;63319;46.046;17.802;2023-02-15T00:11:53;15.73;;;10.48;;
74791;SDS011;63319;46.046;17.802;2023-02-15T00:14:56;16.10;;;9.17;;
74791;SDS011;63319;46.046;17.802;2023-02-15T00:17:58;15.80;;;9.73;;
74791;SDS011;63319;46.046;17.802;2023-02-15T00:21:05;16.10;;;10.07;;
74791;SDS011;63319;46.046;17.802;2023-02-15T00:24:11;17.15;;;10.50;;
74791;SDS011;63319;46.046;17.802;2023-02-15T00:27:15;15.48;;;10.50;;
74791;SDS011;63319;46.046;17.802;2023-02-15T00:30:18;15.70;;;9.67;;
74791;SDS011;63319;46.046;17.802;2023-02-15T00:33:21;15.30;;;9.77;;
74791;SDS011;63319;46.046;17.802;2023-02-15T00:36:27;15.52;;;9.95;;
74791;SDS011;63319;46.046;17.802;2023-02-15T00:39:30;16.65;;;10.57;;
74791;SDS011;63319;46.046;17.802;2023-02-15T00:42:37;13.80;;;9.57;;
74791;SDS011;63319;46.046;17.802;2023-02-15T00:45:44;14.20;;;9.47;;
74791;SDS011;63319;46.046;17.802;2023-02-15T00:48:48;14.23;;;9.20;;
74791;SDS011;63319;46.046;17.802;2023-02-15T00:51:51;15.43;;;9.70;;
74791;SDS011;63319;46.046;17.802;2023-02-15T00:54:54;16.98;;;10.40;;
74791;SDS011;63319;46.046;17.802;2023-02-15T00:57:57;14.05;;;9.55;;
74791;SDS011;63319;46.046;17.802;2023-02-15T01:01:03;14.37;;;8.37;;
74791;SDS011;63319;46.046;17.802;2023-02-15T01:04:11;15.47;;;10.30;;
74791;SDS011;63319;46.046;17.802;2023-02-15T01:07:14;14.10;;;9.55;;
74791;SDS011;63319;46.046;17.802;2023-02-15T01:10:17;14.15;;;8.88;;
74791;SDS011;63319;46.046;17.802;2023-02-15T01:13:20;14.70;;;8.93;;
74791;SDS011;63319;46.046;17.802;2023-02-15T01:16:24;14.33;;;9.57;;
74791;SDS011;63319;46.046;17.802;2023-02-15T01:19:29;14.93;;;9.37;;
74791;SDS011;63319;46.046;17.802;2023-02-15T01:22:34;14.75;;;9.20;;
74791;SDS011;63319;46.046;17.802;2023-02-15T01:25:37;13.70;;;9.18;;
74791;SDS011;63319;46.046;17.802;2023-02-15T01:28:41;14.38;;;8.80;;
74791;SDS011;63319;46.046;17.802;2023-02-15T01:31:44;15.77;;;9.83;;
74791;SDS011;63319;46.046;17.802;2023-02-15T01:34:49;13.40;;;9.23;;
74791;SDS011;63319;46.046;17.802;2023-02-15T01:37:51;13.55;;;9.05;;
74791;SDS011;63319;46.046;17.802;2023-02-15T01:40:54;14.05;;;9.05;;
74791;SDS011;63319;46.046;17.802;2023-02-15T01:48:02;14.33;;;8.17;;
74791;SDS011;63319;46.046;17.802;2023-02-15T01:51:22;15.70;;;9.43;;
74791;SDS011;63319;46.046;17.802;2023-02-15T01:54:29;15.40;;;9.57;;
74791;SDS011;63319;46.046;17.802;2023-02-15T01:57:34;13.55;;;8.77;;
74791;SDS011;63319;46.046;17.802;2023-02-15T02:00:38;14.07;;;9.02;;
74791;SDS011;63319;46.046;17.802;2023-02-15T02:07:00;12.73;;;8.93;;
74791;SDS011;63319;46.046;17.802;2023-02-15T02:10:06;14.15;;;8.80;;
74791;SDS011;63319;46.046;17.802;2023-02-15T02:13:11;14.32;;;8.88;;
74791;SDS011;63319;46.046;17.802;2023-02-15T02:43:37;12.95;;;8.30;;
74791;SDS011;63319;46.046;17.802;2023-02-15T02:50:07;12.95;;;8.57;;
74791;SDS011;63319;46.046;17.802;2023-02-15T02:53:12;13.60;;;8.60;;
74791;SDS011;63319;46.046;17.802;2023-02-15T02:56:22;12.93;;;8.40;;
74791;SDS011;63319;46.046;17.802;2023-02-15T02:59:32;11.25;;;7.88;;
74791;SDS011;63319;46.046;17.802;2023-02-15T03:02:40;13.13;;;8.15;;
74791;SDS011;63319;46.046;17.802;2023-02-15T03:05:47;12.88;;;8.55;;
74791;SDS011;63319;46.046;17.802;2023-02-15T03:08:55;12.40;;;8.37;;
74791;SDS011;63319;46.046;17.802;2023-02-15T03:12:04;12.10;;;7.93;;
74791;SDS011;63319;46.046;17.802;2023-02-15T03:15:14;11.93;;;8.25;;
74791;SDS011;63319;46.046;17.802;2023-02-15T03:18:22;13.43;;;8.40;;
74791;SDS011;63319;46.046;17.802;2023-02-15T03:21:50;13.43;;;8.88;;
74791;SDS011;63319;46.046;17.802;2023-02-15T03:25:21;13.10;;;8.27;;
74791;SDS011;63319;46.046;17.802;2023-02-15T03:28:29;11.57;;;8.30;;
74791;SDS011;63319;46.046;17.802;2023-02-15T03:31:40;11.45;;;8.00;;
74791;SDS011;63319;46.046;17.802;2023-02-15T03:34:44;11.50;;;7.65;;
74791;SDS011;63319;46.046;17.802;2023-02-15T03:37:49;11.55;;;7.22;;
74791;SDS011;63319;46.046;17.802;2023-02-15T03:40:56;12.00;;;7.87;;
74791;SDS011;63319;46.046;17.802;2023-02-15T03:47:52;12.30;;;7.95;;
74791;SDS011;63319;46.046;17.802;2023-02-15T03:51:00;12.55;;;8.23;;
74791;SDS011;63319;46.046;17.802;2023-02-15T03:54:26;13.10;;;8.45;;
74791;SDS011;63319;46.046;17.802;2023-02-15T03:57:46;12.47;;;7.53;;
74791;SDS011;63319;46.046;17.802;2023-02-15T04:05:01;12.15;;;8.38;;
74791;SDS011;63319;46.046;17.802;2023-02-15T04:08:04;12.15;;;8.20;;
74791;SDS011;63319;46.046;17.802;2023-02-15T04:11:08;10.75;;;7.07;;
74791;SDS011;63319;46.046;17.802;2023-02-15T04:14:11;11.90;;;7.63;;
74791;SDS011;63319;46.046;17.802;2023-02-15T04:17:32;11.27;;;7.43;;
74791;SDS011;63319;46.046;17.802;2023-02-15T04:20:35;11.93;;;7.88;;
74791;SDS011;63319;46.046;17.802;2023-02-15T04:23:56;10.98;;;7.18;;
74791;SDS011;63319;46.046;17.802;2023-02-15T04:27:17;13.40;;;7.97;;
74791;SDS011;63319;46.046;17.802;2023-02-15T04:30:27;13.43;;;8.33;;
74791;SDS011;63319;46.046;17.802;2023-02-15T04:33:30;11.77;;;8.10;;
74791;SDS011;63319;46.046;17.802;2023-02-15T04:36:33;12.15;;;7.50;;
74791;SDS011;63319;46.046;17.802;2023-02-15T04:39:36;12.23;;;7.85;;
74791;SDS011;63319;46.046;17.802;2023-02-15T04:42:39;11.75;;;7.30;;
74791;SDS011;63319;46.046;17.802;2023-02-15T04:45:47;11.00;;;7.30;;
74791;SDS011;63319;46.046;17.802;2023-02-15T04:48:54;11.73;;;7.23;;
74791;SDS011;63319;46.046;17.802;2023-02-15T04:51:57;11.93;;;7.53;;
74791;SDS011;63319;46.046;17.802;2023-02-15T04:55:00;11.48;;;7.30;;
74791;SDS011;63319;46.046;17.802;2023-02-15T04:58:03;10.52;;;6.93;;
74791;SDS011;63319;46.046;17.802;2023-02-15T05:01:07;10.43;;;6.93;;
74791;SDS011;63319;46.046;17.802;2023-02-15T05:04:15;11.30;;;7.27;;
74791;SDS011;63319;46.046;17.802;2023-02-15T05:07:18;11.68;;;7.78;;
74791;SDS011;63319;46.046;17.802;2023-02-15T05:10:23;11.45;;;7.45;;
74791;SDS011;63319;46.046;17.802;2023-02-15T05:13:30;10.90;;;7.65;;
74791;SDS011;63319;46.046;17.802;2023-02-15T05:16:33;11.57;;;7.17;;
74791;SDS011;63319;46.046;17.802;2023-02-15T05:19:37;12.30;;;7.83;;
74791;SDS011;63319;46.046;17.802;2023-02-15T05:22:40;11.05;;;7.25;;
74791;SDS011;63319;46.046;17.802;2023-02-15T05:25:48;11.63;;;7.03;;
74791;SDS011;63319;46.046;17.802;2023-02-15T05:29:10;11.93;;;7.60;;
74791;SDS011;63319;46.046;17.802;2023-02-15T05:32:14;10.97;;;7.17;;
74791;SDS011;63319;46.046;17.802;2023-02-15T05:38:35;10.15;;;7.20;;
74791;SDS011;63319;46.046;17.802;2023-02-15T05:41:43;12.35;;;7.63;;
74791;SDS011;63319;46.046;17.802;2023-02-15T05:44:46;10.90;;;7.25;;
74791;SDS011;63319;46.046;17.802;2023-02-15T05:47:49;10.77;;;7.20;;
74791;SDS011;63319;46.046;17.802;2023-02-15T05:50:58;11.73;;;7.07;;
74791;SDS011;63319;46.046;17.802;2023-02-15T05:54:04;11.52;;;7.82;;
74791;SDS011;63319;46.046;17.802;2023-02-15T05:57:07;10.98;;;7.50;;
74791;SDS011;63319;46.046;17.802;2023-02-15T06:00:10;11.13;;;7.30;;
74791;SDS011;63319;46.046;17.802;2023-02-15T06:03:17;11.17;;;7.63;;
74791;SDS011;63319;46.046;17.802;2023-02-15T06:06:21;12.00;;;7.73;;
74791;SDS011;63319;46.046;17.802;2023-02-15T06:09:24;11.20;;;7.22;;
74791;SDS011;63319;46.046;17.802;2023-02-15T06:12:27;11.68;;;7.40;;
74791;SDS011;63319;46.046;17.802;2023-02-15T06:15:30;11.15;;;7.85;;
74791;SDS011;63319;46.046;17.802;2023-02-15T06:18:33;10.33;;;7.10;;
74791;SDS011;63319;46.046;17.802;2023-02-15T06:21:36;10.60;;;6.87;;
74791;SDS011;63319;46.046;17.802;2023-02-15T06:24:39;11.15;;;7.30;;
74791;SDS011;63319;46.046;17.802;2023-02-15T06:27:44;11.52;;;7.65;;
74791;SDS011;63319;46.046;17.802;2023-02-15T06:30:47;11.38;;;7.78;;
74791;SDS011;63319;46.046;17.802;2023-02-15T06:33:50;10.40;;;7.20;;
74791;SDS011;63319;46.046;17.802;2023-02-15T06:36:54;11.70;;;7.60;;
74791;SDS011;63319;46.046;17.802;2023-02-15T06:39:57;12.18;;;8.38;;
74791;SDS011;63319;46.046;17.802;2023-02-15T06:43:01;11.68;;;7.50;;
74791;SDS011;63319;46.046;17.802;2023-02-15T06:46:08;11.30;;;6.93;;
74791;SDS011;63319;46.046;17.802;2023-02-15T06:49:11;16.33;;;7.70;;
74791;SDS011;63319;46.046;17.802;2023-02-15T06:52:19;11.40;;;7.63;;
74791;SDS011;63319;46.046;17.802;2023-02-15T06:55:22;11.38;;;7.38;;
74791;SDS011;63319;46.046;17.802;2023-02-15T06:58:24;13.02;;;7.22;;
74791;SDS011;63319;46.046;17.802;2023-02-15T07:01:27;10.95;;;7.07;;
74791;SDS011;63319;46.046;17.802;2023-02-15T07:04:30;11.37;;;7.53;;
74791;SDS011;63319;46.046;17.802;2023-02-15T07:07:33;12.17;;;8.63;;
74791;SDS011;63319;46.046;17.802;2023-02-15T07:10:36;12.65;;;8.55;;
74791;SDS011;63319;46.046;17.802;2023-02-15T07:13:40;11.45;;;7.45;;
74791;SDS011;63319;46.046;17.802;2023-02-15T07:16:56;10.80;;;7.10;;
74791;SDS011;63319;46.046;17.802;2023-02-15T07:20:01;12.50;;;8.40;;
74791;SDS011;63319;46.046;17.802;2023-02-15T07:23:08;11.33;;;7.43;;
74791;SDS011;63319;46.046;17.802;2023-02-15T07:26:42;12.90;;;7.95;;
74791;SDS011;63319;46.046;17.802;2023-02-15T07:30:06;13.20;;;8.45;;
74791;SDS011;63319;46.046;17.802;2023-02-15T07:33:14;12.23;;;7.68;;
74791;SDS011;63319;46.046;17.802;2023-02-15T07:36:26;11.53;;;6.87;;
74791;SDS011;63319;46.046;17.802;2023-02-15T07:39:29;12.23;;;7.03;;
74791;SDS011;63319;46.046;17.802;2023-02-15T07:42:42;10.85;;;7.70;;
74791;SDS011;63319;46.046;17.802;2023-02-15T07:45:51;11.65;;;7.82;;
74791;SDS011;63319;46.046;17.802;2023-02-15T07:48:56;12.95;;;8.13;;
74791;SDS011;63319;46.046;17.802;2023-02-15T07:52:05;28.10;;;17.97;;
74791;SDS011;63319;46.046;17.802;2023-02-15T07:55:08;34.63;;;23.30;;
74791;SDS011;63319;46.046;17.802;2023-02-15T07:58:24;34.28;;;22.15;;
74791;SDS011;63319;46.046;17.802;2023-02-15T08:01:47;31.63;;;19.70;;
74791;SDS011;63319;46.046;17.802;2023-02-15T08:04:50;28.05;;;18.70;;
74791;SDS011;63319;46.046;17.802;2023-02-15T08:07:53;30.93;;;20.37;;
74791;SDS011;63319;46.046;17.802;2023-02-15T08:11:03;34.73;;;20.97;;
74791;SDS011;63319;46.046;17.802;2023-02-15T08:14:26;31.75;;;19.65;;
74791;SDS011;63319;46.046;17.802;2023-02-15T08:17:31;34.30;;;19.85;;
74791;SDS011;63319;46.046;17.802;2023-02-15T08:20:39;32.20;;;19.48;;
74791;SDS011;63319;46.046;17.802;2023-02-15T08:23:45;30.60;;;18.77;;
74791;SDS011;63319;46.046;17.802;2023-02-15T08:26:48;28.33;;;18.00;;
74791;SDS011;63319;46.046;17.802;2023-02-15T08:29:52;26.30;;;15.52;;
74791;SDS011;63319;46.046;17.802;2023-02-15T08:32:57;27.20;;;17.00;;
74791;SDS011;63319;46.046;17.802;2023-02-15T08:36:20;24.98;;;14.68;;
74791;SDS011;63319;46.046;17.802;2023-02-15T08:39:24;28.27;;;16.07;;
74791;SDS011;63319;46.046;17.802;2023-02-15T08:42:28;21.70;;;11.52;;
74791;SDS011;63319;46.046;17.802;2023-02-15T08:45:38;24.25;;;16.42;;
74791;SDS011;63319;46.046;17.802;2023-02-15T08:48:41;25.65;;;15.18;;
74791;SDS011;63319;46.046;17.802;2023-02-15T08:51:45;28.48;;;16.75;;
74791;SDS011;63319;46.046;17.802;2023-02-15T08:54:49;30.37;;;18.07;;
74791;SDS011;63319;46.046;17.802;2023-02-15T08:57:51;23.88;;;13.68;;
74791;SDS011;63319;46.046;17.802;2023-02-15T09:00:57;27.88;;;16.25;;
74791;SDS011;63319;46.046;17.802;2023-02-15T09:04:02;24.33;;;15.82;;
74791;SDS011;63319;46.046;17.802;2023-02-15T09:07:07;28.23;;;17.95;;
74791;SDS011;63319;46.046;17.802;2023-02-15T09:10:10;27.23;;;14.57;;
74791;SDS011;63319;46.046;17.802;2023-02-15T09:13:13;23.48;;;15.48;;
74791;SDS011;63319;46.046;17.802;2023-02-15T09:16:19;24.80;;;16.17;;
74791;SDS011;63319;46.046;17.802;2023-02-15T09:19:23;25.02;;;15.80;;
74791;SDS011;63319;46.046;17.802;2023-02-15T09:22:26;22.60;;;14.35;;
74791;SDS011;63319;46.046;17.802;2023-02-15T09:25:29;23.03;;;14.57;;
74791;SDS011;63319;46.046;17.802;2023-02-15T09:28:32;25.60;;;15.10;;
74791;SDS011;63319;46.046;17.802;2023-02-15T09:31:40;23.92;;;16.17;;
74791;SDS011;63319;46.046;17.802;2023-02-15T09:34:46;25.70;;;15.23;;
74791;SDS011;63319;46.046;17.802;2023-02-15T09:37:49;27.08;;;16.73;;
74791;SDS011;63319;46.046;17.802;2023-02-15T09:41:05;22.43;;;13.50;;
74791;SDS011;63319;46.046;17.802;2023-02-15T09:44:40;15.95;;;9.82;;
74791;SDS011;63319;46.046;17.802;2023-02-15T09:51:26;15.00;;;9.50;;
74791;SDS011;63319;46.046;17.802;2023-02-15T09:58:28;15.73;;;10.00;;
74791;SDS011;63319;46.046;17.802;2023-02-15T10:08:10;13.48;;;8.52;;
74791;SDS011;63319;46.046;17.802;2023-02-15T10:21:35;11.85;;;7.90;;
74791;SDS011;63319;46.046;17.802;2023-02-15T10:25:02;14.63;;;8.32;;
74791;SDS011;63319;46.046;17.802;2023-02-15T10:28:17;12.25;;;7.18;;
74791;SDS011;63319;46.046;17.802;2023-02-15T10:42:16;11.55;;;7.22;;
74791;SDS011;63319;46.046;17.802;2023-02-15T11:06:17;9.90;;;6.90;;
74791;SDS011;63319;46.046;17.802;2023-02-15T11:09:36;12.70;;;8.05;;
74791;SDS011;63319;46.046;17.802;2023-02-15T11:12:46;15.23;;;8.77;;
74791;SDS011;63319;46.046;17.802;2023-02-15T11:15:52;13.02;;;8.48;;
74791;SDS011;63319;46.046;17.802;2023-02-15T11:19:30;12.65;;;6.65;;
74791;SDS011;63319;46.046;17.802;2023-02-15T11:22:40;12.77;;;6.10;;
74791;SDS011;63319;46.046;17.802;2023-02-15T11:26:09;11.15;;;6.72;;
74791;SDS011;63319;46.046;17.802;2023-02-15T11:30:15;12.23;;;7.30;;
74791;SDS011;63319;46.046;17.802;2023-02-15T11:33:43;10.57;;;6.75;;
74791;SDS011;63319;46.046;17.802;2023-02-15T11:37:11;11.07;;;6.78;;
74791;SDS011;63319;46.046;17.802;2023-02-15T11:40:27;10.17;;;6.23;;
74791;SDS011;63319;46.046;17.802;2023-02-15T11:47:25;9.25;;;6.03;;
74791;SDS011;63319;46.046;17.802;2023-02-15T11:50:31;8.77;;;6.60;;
74791;SDS011;63319;46.046;17.802;2023-02-15T11:53:44;9.35;;;6.60;;
74791;SDS011;63319;46.046;17.802;2023-02-15T11:56:48;10.70;;;6.37;;
74791;SDS011;63319;46.046;17.802;2023-02-15T12:00:06;10.95;;;6.47;;
74791;SDS011;63319;46.046;17.802;2023-02-15T12:07:13;9.93;;;6.30;;
74791;SDS011;63319;46.046;17.802;2023-02-15T12:10:32;9.43;;;6.47;;
74791;SDS011;63319;46.046;17.802;2023-02-15T12:14:00;8.53;;;6.10;;
74791;SDS011;63319;46.046;17.802;2023-02-15T12:17:12;11.15;;;6.38;;
74791;SDS011;63319;46.046;17.802;2023-02-15T12:23:32;9.15;;;6.10;;
74791;SDS011;63319;46.046;17.802;2023-02-15T12:26:42;8.18;;;5.50;;
74791;SDS011;63319;46.046;17.802;2023-02-15T12:29:48;9.73;;;5.50;;
74791;SDS011;63319;46.046;17.802;2023-02-15T12:32:57;10.60;;;6.00;;
74791;SDS011;63319;46.046;17.802;2023-02-15T12:36:20;9.73;;;6.00;;
74791;SDS011;63319;46.046;17.802;2023-02-15T12:39:26;8.43;;;5.70;;
74791;SDS011;63319;46.046;17.802;2023-02-15T12:42:41;10.13;;;6.40;;
74791;SDS011;63319;46.046;17.802;2023-02-15T12:45:45;12.67;;;6.80;;
74791;SDS011;63319;46.046;17.802;2023-02-15T12:52:30;16.08;;;6.63;;
74791;SDS011;63319;46.046;17.802;2023-02-15T12:55:33;13.63;;;6.28;;
74791;SDS011;63319;46.046;17.802;2023-02-15T12:58:37;14.70;;;6.75;;
74791;SDS011;63319;46.046;17.802;2023-02-15T13:01:43;12.17;;;6.60;;
74791;SDS011;63319;46.046;17.802;2023-02-15T13:04:48;16.00;;;6.13;;
74791;SDS011;63319;46.046;17.802;2023-02-15T13:08:00;12.90;;;7.03;;
74791;SDS011;63319;46.046;17.802;2023-02-15T13:11:20;15.02;;;6.72;;
74791;SDS011;63319;46.046;17.802;2023-02-15T13:14:32;10.93;;;6.22;;
74791;SDS011;63319;46.046;17.802;2023-02-15T13:17:37;9.27;;;5.80;;
74791;SDS011;63319;46.046;17.802;2023-02-15T13:20:44;11.65;;;6.20;;
74791;SDS011;63319;46.046;17.802;2023-02-15T13:23:49;11.70;;;6.65;;
74791;SDS011;63319;46.046;17.802;2023-02-15T13:26:56;12.75;;;5.72;;
74791;SDS011;63319;46.046;17.802;2023-02-15T13:30:18;9.93;;;6.03;;
74791;SDS011;63319;46.046;17.802;2023-02-15T13:33:35;10.47;;;6.10;;
74791;SDS011;63319;46.046;17.802;2023-02-15T13:59:53;11.93;;;6.10;;
74791;SDS011;63319;46.046;17.802;2023-02-15T14:06:47;9.47;;;5.53;;
74791;SDS011;63319;46.046;17.802;2023-02-15T14:17:03;9.23;;;5.57;;
74791;SDS011;63319;46.046;17.802;2023-02-15T14:20:20;10.68;;;5.57;;
74791;SDS011;63319;46.046;17.802;2023-02-15T14:30:13;10.88;;;5.28;;
74791;SDS011;63319;46.046;17.802;2023-02-15T14:33:37;8.35;;;5.47;;
74791;SDS011;63319;46.046;17.802;2023-02-15T14:36:45;10.65;;;5.55;;
74791;SDS011;63319;46.046;17.802;2023-02-15T14:53:34;9.48;;;4.97;;
74791;SDS011;63319;46.046;17.802;2023-02-15T15:00:03;8.93;;;4.88;;
74791;SDS011;63319;46.046;17.802;2023-02-15T15:03:33;8.43;;;5.10;;
74791;SDS011;63319;46.046;17.802;2023-02-15T15:06:38;10.15;;;5.90;;
74791;SDS011;63319;46.046;17.802;2023-02-15T15:09:45;7.85;;;5.13;;
74791;SDS011;63319;46.046;17.802;2023-02-15T15:13:34;10.60;;;5.00;;
74791;SDS011;63319;46.046;17.802;2023-02-15T15:26:21;8.23;;;5.03;;
74791;SDS011;63319;46.046;17.802;2023-02-15T15:29:40;8.33;;;5.27;;
74791;SDS011;63319;46.046;17.802;2023-02-15T15:43:32;7.82;;;4.82;;
74791;SDS011;63319;46.046;17.802;2023-02-15T15:50:22;8.02;;;5.28;;
74791;SDS011;63319;46.046;17.802;2023-02-15T15:53:29;7.63;;;4.82;;
74791;SDS011;63319;46.046;17.802;2023-02-15T15:56:55;8.80;;;5.38;;
74791;SDS011;63319;46.046;17.802;2023-02-15T16:00:00;9.25;;;5.55;;
74791;SDS011;63319;46.046;17.802;2023-02-15T16:03:14;9.23;;;5.07;;
74791;SDS011;63319;46.046;17.802;2023-02-15T16:06:26;9.25;;;5.85;;
74791;SDS011;63319;46.046;17.802;2023-02-15T16:09:31;8.70;;;5.57;;
74791;SDS011;63319;46.046;17.802;2023-02-15T16:12:35;10.32;;;5.78;;
74791;SDS011;63319;46.046;17.802;2023-02-15T16:15:45;8.73;;;5.50;;
74791;SDS011;63319;46.046;17.802;2023-02-15T16:18:55;9.50;;;5.57;;
74791;SDS011;63319;46.046;17.802;2023-02-15T16:22:10;10.85;;;6.72;;
74791;SDS011;63319;46.046;17.802;2023-02-15T16:28:21;11.13;;;6.38;;
74791;SDS011;63319;46.046;17.802;2023-02-15T16:31:24;15.05;;;9.18;;
74791;SDS011;63319;46.046;17.802;2023-02-15T16:34:28;8.73;;;5.90;;
74791;SDS011;63319;46.046;17.802;2023-02-15T16:37:35;10.73;;;7.35;;
74791;SDS011;63319;46.046;17.802;2023-02-15T16:44:00;13.68;;;7.05;;
74791;SDS011;63319;46.046;17.802;2023-02-15T16:47:15;10.95;;;7.00;;
74791;SDS011;63319;46.046;17.802;2023-02-15T16:50:45;12.13;;;7.60;;
74791;SDS011;63319;46.046;17.802;2023-02-15T16:53:51;11.68;;;6.78;;
74791;SDS011;63319;46.046;17.802;2023-02-15T16:56:57;11.20;;;7.13;;
74791;SDS011;63319;46.046;17.802;2023-02-15T17:00:14;13.25;;;7.75;;
74791;SDS011;63319;46.046;17.802;2023-02-15T17:03:26;15.05;;;8.63;;
74791;SDS011;63319;46.046;17.802;2023-02-15T17:06:31;12.07;;;7.33;;
74791;SDS011;63319;46.046;17.802;2023-02-15T17:09:36;12.45;;;8.40;;
74791;SDS011;63319;46.046;17.802;2023-02-15T17:12:52;11.50;;;7.60;;
74791;SDS011;63319;46.046;17.802;2023-02-15T17:19:08;12.45;;;8.15;;
74791;SDS011;63319;46.046;17.802;2023-02-15T17:22:22;13.73;;;8.53;;
74791;SDS011;63319;46.046;17.802;2023-02-15T17:25:37;12.70;;;8.40;;
74791;SDS011;63319;46.046;17.802;2023-02-15T17:28:49;13.40;;;8.77;;
74791;SDS011;63319;46.046;17.802;2023-02-15T17:32:18;14.00;;;8.70;;
74791;SDS011;63319;46.046;17.802;2023-02-15T17:35:27;15.98;;;9.85;;
74791;SDS011;63319;46.046;17.802;2023-02-15T17:38:35;12.90;;;8.27;;
74791;SDS011;63319;46.046;17.802;2023-02-15T17:41:44;14.23;;;8.73;;
74791;SDS011;63319;46.046;17.802;2023-02-15T17:44:52;13.80;;;8.45;;
74791;SDS011;63319;46.046;17.802;2023-02-15T17:47:57;13.27;;;8.68;;
74791;SDS011;63319;46.046;17.802;2023-02-15T17:51:10;14.77;;;9.55;;
74791;SDS011;63319;46.046;17.802;2023-02-15T17:54:17;14.80;;;9.43;;
74791;SDS011;63319;46.046;17.802;2023-02-15T17:57:42;16.40;;;10.32;;
74791;SDS011;63319;46.046;17.802;2023-02-15T18:00:48;15.85;;;9.40;;
74791;SDS011;63319;46.046;17.802;2023-02-15T18:04:13;17.13;;;11.18;;
74791;SDS011;63319;46.046;17.802;2023-02-15T18:07:37;16.77;;;10.52;;
74791;SDS011;63319;46.046;17.802;2023-02-15T18:11:03;20.03;;;11.57;;
74791;SDS011;63319;46.046;17.802;2023-02-15T18:14:26;17.10;;;10.93;;
74791;SDS011;63319;46.046;17.802;2023-02-15T18:17:39;23.77;;;14.63;;
74791;SDS011;63319;46.046;17.802;2023-02-15T18:20:48;23.23;;;14.82;;
74791;SDS011;63319;46.046;17.802;2023-02-15T18:23:54;21.50;;;13.13;;
74791;SDS011;63319;46.046;17.802;2023-02-15T18:26:58;18.70;;;12.93;;
74791;SDS011;63319;46.046;17.802;2023-02-15T18:30:03;19.75;;;12.63;;
74791;SDS011;63319;46.046;17.802;2023-02-15T18:33:14;21.30;;;13.07;;
74791;SDS011;63319;46.046;17.802;2023-02-15T18:36:41;20.08;;;12.25;;
74791;SDS011;63319;46.046;17.802;2023-02-15T18:39:48;20.13;;;13.45;;
74791;SDS011;63319;46.046;17.802;2023-02-15T18:42:57;22.07;;;13.27;;
74791;SDS011;63319;46.046;17.802;2023-02-15T18:46:04;21.80;;;14.45;;
74791;SDS011;63319;46.046;17.802;2023-02-15T18:49:10;21.02;;;13.65;;
74791;SDS011;63319;46.046;17.802;2023-02-15T18:52:19;22.17;;;14.00;;
74791;SDS011;63319;46.046;17.802;2023-02-15T18:55:26;22.20;;;14.82;;
74791;SDS011;63319;46.046;17.802;2023-02-15T18:58:35;23.33;;;14.67;;
74791;SDS011;63319;46.046;17.802;2023-02-15T19:01:43;21.63;;;14.45;;
74791;SDS011;63319;46.046;17.802;2023-02-15T19:04:49;20.77;;;13.32;;
74791;SDS011;63319;46.046;17.802;2023-02-15T19:07:56;20.98;;;14.25;;
74791;SDS011;63319;46.046;17.802;2023-02-15T19:11:08;20.65;;;13.32;;
74791;SDS011;63319;46.046;17.802;2023-02-15T19:14:36;22.93;;;13.83;;
74791;SDS011;63319;46.046;17.802;2023-02-15T19:17:41;22.30;;;13.82;;
74791;SDS011;63319;46.046;17.802;2023-02-15T19:20:47;21.95;;;14.38;;
74791;SDS011;63319;46.046;17.802;2023-02-15T19:23:56;20.65;;;13.80;;
74791;SDS011;63319;46.046;17.802;2023-02-15T19:27:28;23.92;;;15.50;;
74791;SDS011;63319;46.046;17.802;2023-02-15T19:30:38;24.33;;;14.50;;
74791;SDS011;63319;46.046;17.802;2023-02-15T19:33:43;22.40;;;14.45;;
74791;SDS011;63319;46.046;17.802;2023-02-15T19:36:50;23.77;;;14.18;;
74791;SDS011;63319;46.046;17.802;2023-02-15T19:39:57;23.35;;;15.43;;
74791;SDS011;63319;46.046;17.802;2023-02-15T19:43:13;23.38;;;15.38;;
74791;SDS011;63319;46.046;17.802;2023-02-15T19:46:28;25.20;;;16.67;;
74791;SDS011;63319;46.046;17.802;2023-02-15T19:49:34;26.35;;;17.00;;
74791;SDS011;63319;46.046;17.802;2023-02-15T19:52:39;26.35;;;16.83;;
74791;SDS011;63319;46.046;17.802;2023-02-15T19:55:45;28.52;;;17.88;;
74791;SDS011;63319;46.046;17.802;2023-02-15T19:58:58;25.95;;;17.17;;
74791;SDS011;63319;46.046;17.802;2023-02-15T20:02:14;26.73;;;16.57;;
74791;SDS011;63319;46.046;17.802;2023-02-15T20:05:22;25.38;;;16.30;;
74791;SDS011;63319;46.046;17.802;2023-02-15T20:08:32;24.92;;;16.45;;
74791;SDS011;63319;46.046;17.802;2023-02-15T20:11:38;26.60;;;17.20;;
74791;SDS011;63319;46.046;17.802;2023-02-15T20:14:43;29.42;;;19.67;;
74791;SDS011;63319;46.046;17.802;2023-02-15T20:17:49;32.93;;;19.53;;
74791;SDS011;63319;46.046;17.802;2023-02-15T20:20:55;25.13;;;17.38;;
74791;SDS011;63319;46.046;17.802;2023-02-15T20:24:02;29.98;;;20.00;;
74791;SDS011;63319;46.046;17.802;2023-02-15T20:27:12;27.85;;;17.77;;
74791;SDS011;63319;46.046;17.802;2023-02-15T20:30:22;27.75;;;17.40;;
74791;SDS011;63319;46.046;17.802;2023-02-15T20:33:32;27.20;;;17.03;;
74791;SDS011;63319;46.046;17.802;2023-02-15T20:36:39;29.65;;;18.20;;
74791;SDS011;63319;46.046;17.802;2023-02-15T20:39:46;27.13;;;17.52;;
74791;SDS011;63319;46.046;17.802;2023-02-15T20:42:54;28.60;;;18.23;;
74791;SDS011;63319;46.046;17.802;2023-02-15T20:45:59;29.92;;;19.45;;
74791;SDS011;63319;46.046;17.802;2023-02-15T20:49:10;30.80;;;18.77;;
74791;SDS011;63319;46.046;17.802;2023-02-15T20:52:17;28.90;;;19.42;;
74791;SDS011;63319;46.046;17.802;2023-02-15T20:55:24;29.20;;;18.65;;
74791;SDS011;63319;46.046;17.802;2023-02-15T20:58:33;28.73;;;18.23;;
74791;SDS011;63319;46.046;17.802;2023-02-15T21:01:39;30.35;;;17.88;;
74791;SDS011;63319;46.046;17.802;2023-02-15T21:04:44;28.87;;;17.67;;
74791;SDS011;63319;46.046;17.802;2023-02-15T21:07:50;29.27;;;18.63;;
74791;SDS011;63319;46.046;17.802;2023-02-15T21:10:58;26.00;;;17.80;;
74791;SDS011;63319;46.046;17.802;2023-02-15T21:14:08;29.70;;;18.95;;
74791;SDS011;63319;46.046;17.802;2023-02-15T21:17:25;28.38;;;18.45;;
74791;SDS011;63319;46.046;17.802;2023-02-15T21:20:42;27.93;;;17.90;;
74791;SDS011;63319;46.046;17.802;2023-02-15T21:23:55;29.92;;;19.00;;
74791;SDS011;63319;46.046;17.802;2023-02-15T21:26:59;27.67;;;18.40;;
74791;SDS011;63319;46.046;17.802;2023-02-15T21:30:13;27.35;;;17.40;;
74791;SDS011;63319;46.046;17.802;2023-02-15T21:33:20;28.33;;;18.10;;
74791;SDS011;63319;46.046;17.802;2023-02-15T21:36:25;29.20;;;18.17;;
74791;SDS011;63319;46.046;17.802;2023-02-15T21:39:31;27.00;;;17.90;;
74791;SDS011;63319;46.046;17.802;2023-02-15T21:42:39;26.83;;;17.08;;
74791;SDS011;63319;46.046;17.802;2023-02-15T21:46:15;28.65;;;18.83;;
74791;SDS011;63319;46.046;17.802;2023-02-15T21:49:43;25.38;;;17.27;;
74791;SDS011;63319;46.046;17.802;2023-02-15T21:52:48;28.20;;;18.40;;
74791;SDS011;63319;46.046;17.802;2023-02-15T21:55:55;28.30;;;18.17;;